aviador You're here:

GMTN Decoded Metar

TETOUAN in MOROCCO
Report Time2017-12-18 08:00:00
UTC Time2017-12-18 09:01:20
Flight Rules vfr VFR
Wind200° at 02 kt
W.Decomp.*RWY 24: 1.6 kt HW 1.3 kt LCW
W.Rank200° ranks 14
Current wind is below 200° avg. (6.3)
Visibility9999 m
Phenomena:N/A
Clouds:Scattered 023 Hf
Scattered 200 Hf
Expected CloudBase > 2,400 ft AGL from Temp-Dew spread
CeilingNone
Temp12°C (ISA -3)
Dew Point06°C (67% RH)
AAT10.4°C
QNH1029 hPa
Density Alt-728 ft
Elevation33 ft
Report Wrong Elevation
Raw Report
GMTN 180800Z 20002KT 9999 SCT023 SCT200 12/06 Q1029 NOSIG=

Extra information for GMTN:More info

Metar Taf Metar & Taf Last 4 Metars F.Rules Stats Wind Profile Meteogram Temp Stats Airport Information Weather charts Add Link Nearby VenuesMetar ALERT Operation Metar Decoded Social comments